Aviation Digital Data Service (ADDS)

Output produced by METARs form (0218 UTC 21 September 2018)
found at http://aviationweather.gov/metar/data/
 
KSAV 210153Z 10005KT 10SM CLR 27/23 A3014 RMK AO2 SLP206 T02670228
KSAV 202324Z 2100/2124 10008KT P6SM SKC 
     FM210900 03003KT P6SM SCT030 
     FM211800 10010KT P6SM SCT040
       
KSVN 210156Z AUTO 00000KT 10SM CLR 26/22 A3011 RMK AO2 SLP199 T02610219 FZRANO $
TAF KSVN 202000Z 2020/2202 10009KT 9999 SCT040 QNH3003INS 
     BECMG 2102/2103 11006KT 9999 BKN010 QNH3008INS 
     BECMG 2114/2115 09009KT 9999 SCT015 BKN020 QNH3006INS TX34/2020Z TN22/2109Z
       
KLHW 210156Z AUTO 00000KT 10SM CLR 24/21 A3012 RMK AO2 SLP202 T02390210 $
KTBR 210155Z AUTO 00000KT 10SM CLR 25/21 A3014 RMK AO2 T02470208
KVDI 210155Z AUTO 13003KT 10SM CLR 26/19 A3014 RMK AO2
KJYL 210155Z AUTO 00000KT CLR 24/22 A3015 RMK AO2 T02420216 PWINO
KDBN 210155Z AUTO 14007KT 10SM CLR 26/20 A3014 RMK AO2
KJES 210157Z AUTO 00000KT 10SM CLR 24/21 A3013 RMK AO2
KSSI 210153Z AUTO 08008KT 10SM FEW026 SCT034 28/23 A3011 RMK AO2 SLP198 T02830228
KSSI 210206Z 2102/2124 08009KT P6SM VCSH SCT025 
     TEMPO 2102/2104 3SM SHRA OVC025 
     FM210400 08007KT P6SM FEW025 
     FM211200 07006KT P6SM VCSH SCT030 
     FM211500 08010KT P6SM VCTS BKN050CB
       
KBQK 210215Z AUTO 07004KT 10SM SCT027 SCT034 25/21 A3013 RMK AO2
KAYS 210155Z AUTO 10003KT 10SM CLR 25/23 A3012 RMK AO2 T02470230
KNBC 210156Z AUTO 10006KT 10SM CLR 27/24 A3014 RMK AO2 SLP208 T02720239
TAF KNBC 2021/2121 11008KT 9999 SCT030 SCT050 QNH3003INS 
     BECMG 2104/2106 09005KT 9999 SCT010 BKN030 QNH3008INS 
     BECMG 2112/2114 08010KT 9999 SCT015 BKN020 QNH3006INS T31/2019Z T23/2109Z
       
KHXD 210215Z AUTO 08006KT 10SM FEW024 27/22 A3015 RMK AO2